createdAt,value
2018-12-29T00:01:45.445Z,29.73
2018-12-29T00:04:14.121Z,31.17
2018-12-29T00:06:42.812Z,36.43
2018-12-29T00:09:11.622Z,37.20
2018-12-29T00:11:40.326Z,31.87
2018-12-29T00:14:09.100Z,36.20
2018-12-29T00:16:37.807Z,34.17
2018-12-29T00:19:06.498Z,37.30
2018-12-29T00:21:35.191Z,34.53
2018-12-29T00:24:03.890Z,31.17
2018-12-29T00:26:32.566Z,36.90
2018-12-29T00:29:01.409Z,35.40
2018-12-29T00:31:30.083Z,30.77
2018-12-29T00:33:58.773Z,34.23
2018-12-29T00:36:27.564Z,34.60
2018-12-29T00:38:56.231Z,40.03
2018-12-29T00:41:24.943Z,36.00
2018-12-29T00:43:53.625Z,34.10
2018-12-29T00:46:22.333Z,33.07
2018-12-29T00:48:51.028Z,32.37
2018-12-29T00:51:21.038Z,33.53
2018-12-29T00:53:49.758Z,36.07
2018-12-29T00:56:18.451Z,35.57
2018-12-29T00:58:47.163Z,30.63
2018-12-29T01:01:15.850Z,34.10
2018-12-29T01:03:44.555Z,34.83
2018-12-29T01:06:13.242Z,33.83
2018-12-29T01:08:41.923Z,31.90
2018-12-29T01:11:10.634Z,34.57
2018-12-29T01:13:39.348Z,33.47
2018-12-29T01:16:08.085Z,35.47
2018-12-29T01:18:36.980Z,35.13
2018-12-29T01:21:05.686Z,39.00
2018-12-29T01:23:34.376Z,33.80
2018-12-29T01:26:03.103Z,36.63
2018-12-29T01:28:31.837Z,35.23
2018-12-29T01:31:00.545Z,35.20
2018-12-29T01:33:29.362Z,35.83
2018-12-29T01:35:58.161Z,34.63
2018-12-29T01:38:26.831Z,32.97
2018-12-29T01:40:55.490Z,30.87
2018-12-29T01:43:24.367Z,33.13
2018-12-29T01:45:53.043Z,41.13
2018-12-29T01:48:21.725Z,34.37
2018-12-29T01:50:50.417Z,38.57
2018-12-29T01:53:19.274Z,38.23
2018-12-29T01:55:47.963Z,34.13
2018-12-29T01:58:16.675Z,37.53
2018-12-29T02:00:45.352Z,33.60
2018-12-29T02:03:14.055Z,42.17
2018-12-29T02:05:42.815Z,36.13
2018-12-29T02:08:11.521Z,37.70
2018-12-29T02:10:40.323Z,41.03
2018-12-29T02:13:09.034Z,36.47
2018-12-29T02:15:37.756Z,35.23
2018-12-29T02:18:06.431Z,38.73
2018-12-29T02:20:35.142Z,35.37
2018-12-29T02:23:03.820Z,40.47
2018-12-29T02:25:32.484Z,37.50
2018-12-29T02:28:01.194Z,37.30
2018-12-29T02:30:29.888Z,36.93
2018-12-29T02:32:58.604Z,37.03
2018-12-29T02:35:27.285Z,34.33
2018-12-29T02:37:56.057Z,38.03
2018-12-29T02:40:24.932Z,39.37
2018-12-29T02:42:53.717Z,34.10
2018-12-29T02:45:22.400Z,43.73
2018-12-29T02:47:51.100Z,36.20
2018-12-29T02:50:19.794Z,32.70
2018-12-29T02:52:48.499Z,37.47
2018-12-29T02:55:17.256Z,40.40
2018-12-29T02:57:45.925Z,37.87
2018-12-29T03:00:14.639Z,36.13
2018-12-29T03:02:43.306Z,36.70
2018-12-29T03:05:11.999Z,40.37
2018-12-29T03:07:40.687Z,37.80
2018-12-29T03:10:09.436Z,38.50
2018-12-29T03:12:38.122Z,33.70
2018-12-29T03:15:06.969Z,39.40
2018-12-29T03:17:35.670Z,36.23
2018-12-29T03:20:04.443Z,34.77
2018-12-29T03:22:33.148Z,41.87
2018-12-29T03:25:01.837Z,41.80
2018-12-29T03:27:30.537Z,34.90
2018-12-29T03:29:59.225Z,35.70
2018-12-29T03:32:27.926Z,38.20
2018-12-29T03:34:56.733Z,40.00
2018-12-29T03:37:25.524Z,34.93
2018-12-29T03:39:54.199Z,39.17
2018-12-29T03:42:23.107Z,30.57
2018-12-29T03:44:51.771Z,35.70
2018-12-29T03:47:20.450Z,35.13
2018-12-29T03:49:49.222Z,35.87
2018-12-29T03:52:17.912Z,38.83
2018-12-29T03:54:46.766Z,36.00
2018-12-29T03:57:15.424Z,37.63
2018-12-29T03:59:44.123Z,38.13
2018-12-29T04:02:12.816Z,37.43
2018-12-29T04:04:41.514Z,34.57
2018-12-29T04:07:10.214Z,37.90
2018-12-29T04:09:38.885Z,37.53
2018-12-29T04:12:13.373Z,37.00
2018-12-29T04:14:42.472Z,32.97
2018-12-29T04:17:11.182Z,34.20
2018-12-29T04:19:39.883Z,31.70
2018-12-29T04:22:08.653Z,35.30
2018-12-29T04:24:37.503Z,38.30
2018-12-29T04:27:06.162Z,34.43
2018-12-29T04:29:34.950Z,35.37
2018-12-29T04:32:03.756Z,32.57
2018-12-29T04:34:32.437Z,34.67
2018-12-29T04:37:01.132Z,33.97
2018-12-29T04:39:29.799Z,31.60
2018-12-29T04:41:58.494Z,36.37
2018-12-29T04:44:27.219Z,31.17
2018-12-29T04:46:55.896Z,31.20
2018-12-29T04:49:24.614Z,36.90
2018-12-29T04:51:53.348Z,36.90
2018-12-29T04:54:22.137Z,30.70
2018-12-29T04:56:50.799Z,32.53
2018-12-29T04:59:19.506Z,37.10
2018-12-29T05:01:48.175Z,36.50
2018-12-29T05:04:16.865Z,31.93
2018-12-29T05:06:45.675Z,26.70
2018-12-29T05:09:14.384Z,28.17
2018-12-29T05:11:43.057Z,30.20
2018-12-29T05:14:11.744Z,32.10
2018-12-29T05:16:40.443Z,29.30
2018-12-29T05:19:09.111Z,29.50
2018-12-29T05:21:37.820Z,30.43
2018-12-29T05:24:06.490Z,30.37
2018-12-29T05:26:35.197Z,32.47
2018-12-29T05:29:03.867Z,24.93
2018-12-29T05:31:32.567Z,31.37
2018-12-29T05:34:01.255Z,30.87
2018-12-29T05:36:29.915Z,30.30
2018-12-29T05:38:58.620Z,26.03
2018-12-29T05:41:27.286Z,29.83
2018-12-29T05:43:55.991Z,28.67
2018-12-29T05:46:24.664Z,24.97
2018-12-29T05:48:53.367Z,26.40
2018-12-29T05:51:22.046Z,28.97
2018-12-29T05:53:50.718Z,26.10
2018-12-29T05:56:19.394Z,25.40
2018-12-29T05:58:48.054Z,29.13
2018-12-29T06:01:16.761Z,26.10
2018-12-29T06:03:45.479Z,26.87
2018-12-29T06:06:14.175Z,27.23
2018-12-29T06:08:42.844Z,25.93
2018-12-29T06:11:11.559Z,24.20
2018-12-29T06:13:40.280Z,26.73
2018-12-29T06:16:09.163Z,24.27
2018-12-29T06:18:37.827Z,23.10
2018-12-29T06:21:06.541Z,25.60
2018-12-29T06:23:35.211Z,26.83
2018-12-29T06:26:03.923Z,24.60
2018-12-29T06:28:32.592Z,22.10
2018-12-29T06:31:01.506Z,22.10
2018-12-29T06:33:30.206Z,24.40
2018-12-29T06:35:58.882Z,18.70
2018-12-29T06:38:27.575Z,20.20
2018-12-29T06:40:56.227Z,19.90
2018-12-29T06:43:24.918Z,21.77
2018-12-29T06:45:53.584Z,19.97
2018-12-29T06:48:22.275Z,19.33
2018-12-29T06:50:50.969Z,19.13
2018-12-29T06:53:19.633Z,20.30
2018-12-29T06:55:48.303Z,18.83
2018-12-29T06:58:17.004Z,19.33
2018-12-29T07:00:45.686Z,19.73
2018-12-29T07:03:14.357Z,24.07
2018-12-29T07:05:43.160Z,17.60
2018-12-29T07:08:11.874Z,16.90
2018-12-29T07:10:40.619Z,19.13
2018-12-29T07:13:09.334Z,21.03
2018-12-29T07:15:38.054Z,20.70
2018-12-29T07:18:06.739Z,19.90
2018-12-29T07:20:35.436Z,19.23
2018-12-29T07:23:04.117Z,20.30
2018-12-29T07:25:32.856Z,20.17
2018-12-29T07:28:01.614Z,20.70
2018-12-29T07:30:30.336Z,26.13
2018-12-29T07:32:59.015Z,23.27
2018-12-29T07:35:27.798Z,25.70
2018-12-29T07:37:56.674Z,25.77
2018-12-29T07:40:25.324Z,24.27
2018-12-29T07:42:54.336Z,26.17
2018-12-29T07:45:24.019Z,22.37
2018-12-29T07:47:52.722Z,26.20
2018-12-29T07:50:21.415Z,25.03
2018-12-29T07:52:50.104Z,22.30
2018-12-29T07:55:18.796Z,21.50
2018-12-29T07:57:47.586Z,26.53
2018-12-29T08:00:16.272Z,24.00
2018-12-29T08:02:45.087Z,24.40
2018-12-29T08:05:13.773Z,25.80
2018-12-29T08:07:42.463Z,24.93
2018-12-29T08:10:11.261Z,24.03
2018-12-29T08:12:39.936Z,26.70
2018-12-29T08:15:08.632Z,31.40
2018-12-29T08:17:37.320Z,26.47
2018-12-29T08:20:06.506Z,22.50
2018-12-29T08:22:35.204Z,26.80
2018-12-29T08:25:04.386Z,24.53
2018-12-29T08:27:33.084Z,23.60
2018-12-29T08:30:01.758Z,23.97
2018-12-29T08:32:30.481Z,25.90
2018-12-29T08:34:59.251Z,26.73
2018-12-29T08:37:27.939Z,25.90
2018-12-29T08:39:56.631Z,27.53
2018-12-29T08:42:25.291Z,30.90
2018-12-29T08:44:54.009Z,27.47
2018-12-29T08:47:22.710Z,26.83
2018-12-29T08:49:51.409Z,24.20
2018-12-29T08:52:20.087Z,23.23
2018-12-29T08:54:48.895Z,25.53
2018-12-29T08:57:17.586Z,23.63
2018-12-29T08:59:46.301Z,29.50
2018-12-29T09:02:14.981Z,29.70
2018-12-29T09:04:43.668Z,26.77
2018-12-29T09:07:12.352Z,33.80
2018-12-29T09:09:41.010Z,26.60
2018-12-29T09:12:09.715Z,31.77
2018-12-29T09:14:38.411Z,31.13
2018-12-29T09:17:12.054Z,23.17
2018-12-29T09:19:37.519Z,26.23
2018-12-29T09:22:06.213Z,33.07
2018-12-29T09:24:35.010Z,28.37
2018-12-29T09:27:03.718Z,31.20
2018-12-29T09:29:32.404Z,30.77
2018-12-29T09:32:01.079Z,32.60
2018-12-29T09:34:29.775Z,26.90
2018-12-29T09:36:58.449Z,29.50
2018-12-29T09:39:27.160Z,26.07
2018-12-29T09:41:55.834Z,28.60
2018-12-29T09:44:24.528Z,33.80
2018-12-29T09:46:54.966Z,30.97
2018-12-29T09:49:23.648Z,33.27
2018-12-29T09:51:52.320Z,37.83
2018-12-29T09:54:20.987Z,32.40
2018-12-29T09:56:49.956Z,36.67
2018-12-29T09:59:18.643Z,28.70
2018-12-29T10:01:47.327Z,37.53
2018-12-29T10:04:16.311Z,36.10
2018-12-29T10:06:44.993Z,40.53
2018-12-29T10:09:13.668Z,37.17
2018-12-29T10:11:42.399Z,32.37
2018-12-29T10:14:11.099Z,35.00
2018-12-29T10:16:39.859Z,35.70
2018-12-29T10:19:08.672Z,39.60
2018-12-29T10:21:37.355Z,33.20
2018-12-29T10:24:06.184Z,35.37
2018-12-29T10:26:35.206Z,33.63
2018-12-29T10:29:03.893Z,38.20
2018-12-29T10:31:32.565Z,33.90
2018-12-29T10:34:01.284Z,30.77
2018-12-29T10:36:29.951Z,35.50
2018-12-29T10:38:58.623Z,33.43
2018-12-29T10:41:27.306Z,36.93
2018-12-29T10:43:55.975Z,34.80
2018-12-29T10:46:24.661Z,32.97
2018-12-29T10:48:53.364Z,30.10
2018-12-29T10:51:22.053Z,31.47
2018-12-29T10:53:50.738Z,34.87
2018-12-29T10:56:19.640Z,40.77
2018-12-29T10:58:48.331Z,33.73
2018-12-29T11:01:17.009Z,31.87
2018-12-29T11:03:45.927Z,30.90
2018-12-29T11:06:14.592Z,32.13
2018-12-29T11:08:43.405Z,31.83
2018-12-29T11:11:12.178Z,31.77
2018-12-29T11:13:40.881Z,30.63
2018-12-29T11:16:09.752Z,29.20
2018-12-29T11:18:38.442Z,33.17
2018-12-29T11:21:07.129Z,32.77
2018-12-29T11:23:35.784Z,32.77
2018-12-29T11:26:04.755Z,28.97
2018-12-29T11:28:33.411Z,32.93
2018-12-29T11:31:02.101Z,33.97
2018-12-29T11:33:30.858Z,31.60
2018-12-29T11:35:59.587Z,34.07
2018-12-29T11:38:28.275Z,28.17
2018-12-29T11:40:57.290Z,31.33
2018-12-29T11:43:25.961Z,32.60
2018-12-29T11:45:54.627Z,32.43
2018-12-29T11:48:23.410Z,30.70
2018-12-29T11:50:52.166Z,31.90
2018-12-29T11:53:20.868Z,32.47
2018-12-29T11:55:49.656Z,35.00
2018-12-29T11:58:18.332Z,30.70
2018-12-29T12:00:46.995Z,36.30
2018-12-29T12:03:15.908Z,35.63
2018-12-29T12:05:44.666Z,28.60
2018-12-29T12:08:13.331Z,30.77
2018-12-29T12:10:42.176Z,30.00
2018-12-29T12:13:12.317Z,35.80
2018-12-29T12:15:41.088Z,30.23
2018-12-29T12:18:09.802Z,31.67
2018-12-29T12:20:38.543Z,26.80
2018-12-29T12:23:07.234Z,27.27
2018-12-29T12:25:36.015Z,29.80
2018-12-29T12:28:05.267Z,31.47
2018-12-29T12:30:34.021Z,29.30
2018-12-29T12:33:02.700Z,28.13
2018-12-29T12:35:31.455Z,27.13
2018-12-29T12:38:00.414Z,28.80
2018-12-29T12:40:29.330Z,28.83
2018-12-29T12:42:58.022Z,27.37
2018-12-29T12:45:26.715Z,25.63
2018-12-29T12:47:55.609Z,26.40
2018-12-29T12:50:24.298Z,26.53
2018-12-29T12:52:53.164Z,27.20
2018-12-29T12:55:21.907Z,25.97
2018-12-29T12:57:50.619Z,28.53
2018-12-29T13:00:19.637Z,26.20
2018-12-29T13:02:48.487Z,24.17
2018-12-29T13:05:17.201Z,24.77
2018-12-29T13:07:45.876Z,23.57
2018-12-29T13:10:14.667Z,28.00
2018-12-29T13:12:43.338Z,24.13
2018-12-29T13:15:12.093Z,21.07
2018-12-29T13:17:40.895Z,25.97
2018-12-29T13:20:09.577Z,23.13
2018-12-29T13:22:38.312Z,25.47
2018-12-29T13:25:09.315Z,25.10
2018-12-29T13:27:38.016Z,25.23
2018-12-29T13:30:06.803Z,22.70
2018-12-29T13:32:35.507Z,20.87
2018-12-29T13:35:04.631Z,23.40
2018-12-29T13:37:33.427Z,21.40
2018-12-29T13:40:02.167Z,22.00
2018-12-29T13:42:30.859Z,20.97
2018-12-29T13:45:01.061Z,23.70
2018-12-29T13:47:29.996Z,22.87
2018-12-29T13:49:58.677Z,21.90
2018-12-29T13:52:27.397Z,20.03
2018-12-29T13:54:56.079Z,21.90
2018-12-29T13:57:24.750Z,21.37
2018-12-29T13:59:53.472Z,20.50
2018-12-29T14:02:22.155Z,21.43
2018-12-29T14:04:51.877Z,22.43
2018-12-29T14:07:20.642Z,21.40
2018-12-29T14:09:49.346Z,22.13
2018-12-29T14:12:18.019Z,21.90
2018-12-29T14:14:46.725Z,22.57
2018-12-29T14:17:15.452Z,20.03
2018-12-29T14:19:44.713Z,23.33
2018-12-29T14:22:13.569Z,22.00
2018-12-29T14:24:42.356Z,23.13
2018-12-29T14:27:11.113Z,19.17
2018-12-29T14:29:39.875Z,20.77
2018-12-29T14:32:08.638Z,18.70
2018-12-29T14:34:37.784Z,21.63
2018-12-29T14:37:08.461Z,21.03
2018-12-29T14:39:37.171Z,20.23
2018-12-29T14:42:05.860Z,20.93
2018-12-29T14:44:34.579Z,22.30
2018-12-29T14:49:45.144Z,20.40
2018-12-29T14:52:13.919Z,16.80
2018-12-29T14:54:42.690Z,18.87
2018-12-29T14:57:11.422Z,16.63
2018-12-29T14:59:40.128Z,19.30
2018-12-29T15:02:08.855Z,19.60
2018-12-29T15:04:37.552Z,18.67
2018-12-29T15:07:06.296Z,15.50
2018-12-29T15:09:35.035Z,21.23
2018-12-29T15:12:03.795Z,19.50
2018-12-29T15:14:32.585Z,18.83
2018-12-29T15:17:01.333Z,17.17
2018-12-29T15:19:30.064Z,17.83
2018-12-29T15:21:58.827Z,16.50
2018-12-29T15:24:27.573Z,17.90
2018-12-29T15:26:56.661Z,17.93
2018-12-29T15:29:25.372Z,16.93
2018-12-29T15:31:54.099Z,15.13
2018-12-29T15:34:22.853Z,14.30
2018-12-29T15:36:51.602Z,17.73
2018-12-29T15:39:20.712Z,14.43
2018-12-29T15:41:49.491Z,15.53
2018-12-29T15:44:18.162Z,15.10
2018-12-29T15:46:47.026Z,14.10
2018-12-29T15:49:15.724Z,17.03
2018-12-29T15:51:44.512Z,16.13
2018-12-29T15:54:13.215Z,15.90
2018-12-29T15:56:42.006Z,17.00
2018-12-29T15:59:10.769Z,11.73
2018-12-29T16:01:39.877Z,11.20
2018-12-29T16:04:08.774Z,11.90
2018-12-29T16:06:37.554Z,12.43
2018-12-29T16:09:07.135Z,11.30
2018-12-29T16:11:36.213Z,14.37
2018-12-29T16:14:04.978Z,9.77
2018-12-29T16:16:33.749Z,12.93
2018-12-29T16:19:02.502Z,10.67
2018-12-29T16:21:31.329Z,9.27
2018-12-29T16:24:00.002Z,9.30
2018-12-29T16:26:28.772Z,9.27
2018-12-29T16:28:57.529Z,7.70
2018-12-29T16:31:26.347Z,10.40
2018-12-29T16:33:55.079Z,8.97
2018-12-29T16:36:23.780Z,8.60
2018-12-29T16:38:52.475Z,7.27
2018-12-29T16:41:21.198Z,6.43
2018-12-29T16:43:50.335Z,6.23
2018-12-29T16:46:19.038Z,5.63
2018-12-29T16:48:47.802Z,5.37
2018-12-29T16:51:16.621Z,5.00
2018-12-29T16:53:45.607Z,5.03
2018-12-29T16:56:14.344Z,5.23
2018-12-29T16:58:43.067Z,6.80
2018-12-29T17:01:11.832Z,5.77
2018-12-29T17:03:40.998Z,5.23
2018-12-29T17:06:09.763Z,5.13
2018-12-29T17:08:38.611Z,8.20
2018-12-29T17:11:07.379Z,5.87
2018-12-29T17:13:36.563Z,5.70
2018-12-29T17:16:05.314Z,6.50
2018-12-29T17:18:34.128Z,6.93
2018-12-29T17:21:03.180Z,7.60
2018-12-29T17:23:31.843Z,8.47
2018-12-29T17:26:00.609Z,11.27
2018-12-29T17:28:29.685Z,9.00
2018-12-29T17:30:58.486Z,8.87
2018-12-29T17:33:27.180Z,10.37
2018-12-29T17:35:55.983Z,10.60
2018-12-29T17:38:24.747Z,9.33
2018-12-29T17:40:53.600Z,11.57
2018-12-29T17:43:22.342Z,10.67
2018-12-29T17:45:51.098Z,11.20
2018-12-29T17:48:19.876Z,11.57
2018-12-29T17:50:48.592Z,10.40
2018-12-29T17:53:17.443Z,13.13
2018-12-29T17:55:46.314Z,14.20
2018-12-29T17:58:15.228Z,12.33
2018-12-29T18:00:43.928Z,12.70
2018-12-29T18:03:13.591Z,12.80
2018-12-29T18:05:42.377Z,13.53
2018-12-29T18:08:11.196Z,13.43
2018-12-29T18:10:39.995Z,14.23
2018-12-29T18:13:08.684Z,14.20
2018-12-29T18:15:37.501Z,16.17
2018-12-29T18:18:06.240Z,14.30
2018-12-29T18:20:35.360Z,13.80
2018-12-29T18:23:04.179Z,16.33
2018-12-29T18:25:32.940Z,15.47
2018-12-29T18:28:01.748Z,17.37
2018-12-29T18:30:30.755Z,18.20
2018-12-29T18:32:59.537Z,18.63
2018-12-29T18:35:28.291Z,17.47
2018-12-29T18:37:57.012Z,19.13
2018-12-29T18:40:25.705Z,19.53
2018-12-29T18:42:54.427Z,18.57
2018-12-29T18:45:23.279Z,18.43
2018-12-29T18:47:52.083Z,24.67
2018-12-29T18:50:20.774Z,22.47
2018-12-29T18:52:49.744Z,25.50
2018-12-29T18:55:18.572Z,25.17
2018-12-29T18:57:47.661Z,23.27
2018-12-29T19:00:16.561Z,24.43
2018-12-29T19:03:04.614Z,23.10
2018-12-29T19:05:33.445Z,25.13
2018-12-29T19:08:02.200Z,22.90
2018-12-29T19:10:30.982Z,24.40
2018-12-29T19:12:59.989Z,27.30
2018-12-29T19:15:28.969Z,30.03
2018-12-29T19:17:58.138Z,33.47
2018-12-29T19:20:27.386Z,26.07
2018-12-29T19:22:56.285Z,26.13
2018-12-29T19:25:25.081Z,26.57
2018-12-29T19:27:53.867Z,29.40
2018-12-29T19:30:23.285Z,32.03
2018-12-29T19:32:53.828Z,28.00
2018-12-29T19:35:22.510Z,29.60
2018-12-29T19:37:51.407Z,31.67
2018-12-29T19:40:20.177Z,33.10
2018-12-29T19:42:49.168Z,28.93
2018-12-29T19:45:17.961Z,32.70
2018-12-29T19:47:47.075Z,33.67
2018-12-29T19:50:17.841Z,29.00
2018-12-29T19:52:46.657Z,29.60
2018-12-29T19:55:15.479Z,29.70
2018-12-29T19:57:44.259Z,34.80
2018-12-29T20:00:12.971Z,30.87
2018-12-29T20:02:41.968Z,33.47
2018-12-29T20:05:11.122Z,30.20
2018-12-29T20:07:39.847Z,29.23
2018-12-29T20:10:08.650Z,31.03
2018-12-29T20:12:37.595Z,29.77
2018-12-29T20:15:06.760Z,29.30
2018-12-29T20:17:36.036Z,30.93
2018-12-29T20:20:05.933Z,28.73
2018-12-29T20:22:34.677Z,30.70
2018-12-29T20:25:03.419Z,31.43
2018-12-29T20:27:32.195Z,28.80
2018-12-29T20:30:01.296Z,33.83
2018-12-29T20:32:30.034Z,28.27
2018-12-29T20:34:58.795Z,30.90
2018-12-29T20:37:27.530Z,31.20
2018-12-29T20:39:56.222Z,25.83
2018-12-29T20:42:25.288Z,24.60
2018-12-29T20:44:53.980Z,24.93
2018-12-29T20:47:22.809Z,24.70
2018-12-29T20:49:51.600Z,20.67
2018-12-29T20:52:20.287Z,18.67
2018-12-29T20:54:49.014Z,21.90
2018-12-29T20:57:17.872Z,23.97
2018-12-29T20:59:46.684Z,16.83
2018-12-29T21:02:15.443Z,16.93
2018-12-29T21:04:44.267Z,15.37
2018-12-29T21:07:13.077Z,16.93
2018-12-29T21:09:42.223Z,17.20
2018-12-29T21:12:11.074Z,18.43
2018-12-29T21:14:39.831Z,12.70
2018-12-29T21:17:08.633Z,14.87
2018-12-29T21:19:37.400Z,11.00
2018-12-29T21:22:07.477Z,10.03
2018-12-29T21:24:36.358Z,16.70
2018-12-29T21:27:08.246Z,16.60
2018-12-29T21:29:37.131Z,13.97
2018-12-29T21:32:05.916Z,12.63
2018-12-29T21:34:34.889Z,13.87
2018-12-29T21:37:03.853Z,16.00
2018-12-29T21:39:32.751Z,12.27
2018-12-29T21:42:01.882Z,14.73
2018-12-29T21:44:30.598Z,13.03
2018-12-29T21:46:59.377Z,8.47
2018-12-29T21:49:28.532Z,12.13
2018-12-29T21:51:57.427Z,10.77
2018-12-29T21:54:26.208Z,10.93
2018-12-29T21:56:55.061Z,8.33
2018-12-29T21:59:23.822Z,8.83
2018-12-29T22:01:52.602Z,7.70
2018-12-29T22:04:21.319Z,7.20
2018-12-29T22:06:50.203Z,17.40
2018-12-29T22:09:19.136Z,7.80
2018-12-29T22:11:47.905Z,13.27
2018-12-29T22:14:16.617Z,4.40
2018-12-29T22:16:45.810Z,10.23
2018-12-29T22:19:14.544Z,8.40
2018-12-29T22:21:43.267Z,11.20
2018-12-29T22:24:12.190Z,9.30
2018-12-29T22:26:40.927Z,7.40
2018-12-29T22:29:09.670Z,8.73
2018-12-29T22:31:38.450Z,7.60
2018-12-29T22:34:07.194Z,13.10
2018-12-29T22:36:35.898Z,13.53
2018-12-29T22:39:06.305Z,8.70
2018-12-29T22:41:35.071Z,13.03
2018-12-29T22:44:04.014Z,11.03
2018-12-29T22:46:32.935Z,13.13
2018-12-29T22:49:01.735Z,13.00
2018-12-29T22:51:30.503Z,5.80
2018-12-29T22:53:59.210Z,14.97
2018-12-29T22:56:28.272Z,18.23
2018-12-29T22:58:57.053Z,12.00
2018-12-29T23:01:25.872Z,15.40
2018-12-29T23:03:56.017Z,10.30
2018-12-29T23:06:24.765Z,13.23
2018-12-29T23:08:53.494Z,17.80
2018-12-29T23:11:22.463Z,12.20
2018-12-29T23:13:51.206Z,11.43
2018-12-29T23:16:20.109Z,14.20
2018-12-29T23:18:49.015Z,10.47
2018-12-29T23:21:17.836Z,7.77
2018-12-29T23:23:46.637Z,12.33
2018-12-29T23:26:15.398Z,10.20
2018-12-29T23:28:44.255Z,8.70
2018-12-29T23:31:13.023Z,11.67
2018-12-29T23:33:41.787Z,10.97
2018-12-29T23:36:10.776Z,9.43
2018-12-29T23:38:39.526Z,12.60
2018-12-29T23:41:08.304Z,12.03
2018-12-29T23:43:37.405Z,14.23
2018-12-29T23:46:06.147Z,15.27
2018-12-29T23:48:34.907Z,11.30
2018-12-29T23:51:05.610Z,15.43
2018-12-29T23:53:34.111Z,15.70
2018-12-29T23:56:03.258Z,13.50
2018-12-29T23:58:32.323Z,13.07
